createdAt,value
2022-08-17T00:00:44.062Z,18.60
2022-08-17T00:03:23.051Z,18.60
2022-08-17T00:06:12.121Z,18.60
2022-08-17T00:08:50.739Z,18.60
2022-08-17T00:11:26.131Z,18.60
2022-08-17T00:13:58.593Z,18.60
2022-08-17T00:16:50.371Z,18.60
2022-08-17T00:19:24.233Z,18.60
2022-08-17T00:22:31.671Z,18.60
2022-08-17T00:24:43.597Z,18.60
2022-08-17T00:27:10.576Z,18.60
2022-08-17T00:29:37.730Z,18.60
2022-08-17T00:33:15.898Z,18.60
2022-08-17T00:34:52.056Z,18.60
2022-08-17T00:37:19.143Z,18.60
2022-08-17T00:39:46.253Z,18.50
2022-08-17T00:42:19.259Z,18.50
2022-08-17T00:44:46.579Z,18.40
2022-08-17T00:47:13.676Z,18.40
2022-08-17T00:49:40.988Z,18.50
2022-08-17T00:52:16.822Z,18.50
2022-08-17T00:54:47.789Z,18.50
2022-08-17T00:57:37.102Z,18.50
2022-08-17T01:00:21.316Z,18.50
2022-08-17T01:02:48.940Z,18.50
2022-08-17T01:05:22.053Z,18.50
2022-08-17T01:07:53.097Z,18.50
2022-08-17T01:10:58.345Z,18.50
2022-08-17T01:13:17.494Z,18.50
2022-08-17T01:16:11.830Z,18.50
2022-08-17T01:18:39.503Z,18.40
2022-08-17T01:21:44.671Z,18.40
2022-08-17T01:24:11.830Z,18.40
2022-08-17T01:26:42.417Z,18.40
2022-08-17T01:29:10.441Z,18.40
2022-08-17T01:31:47.584Z,18.30
2022-08-17T01:34:17.641Z,18.40
2022-08-17T01:36:49.225Z,18.40
2022-08-17T01:39:38.612Z,18.40
2022-08-17T01:42:13.253Z,18.40
2022-08-17T01:44:41.225Z,18.30
2022-08-17T01:47:08.387Z,18.30
2022-08-17T01:49:35.501Z,18.30
2022-08-17T01:52:11.097Z,18.30
2022-08-17T01:54:41.787Z,18.30
2022-08-17T01:57:10.199Z,18.20
2022-08-17T01:59:37.663Z,18.20
2022-08-17T02:02:07.234Z,18.20
2022-08-17T02:04:34.923Z,18.20
2022-08-17T02:07:02.144Z,18.20
2022-08-17T02:09:31.747Z,18.30
2022-08-17T02:12:37.270Z,18.20
2022-08-17T02:14:59.249Z,18.20
2022-08-17T02:17:26.452Z,18.20
2022-08-17T02:19:53.502Z,18.20
2022-08-17T02:22:20.580Z,18.20
2022-08-17T02:25:00.688Z,18.20
2022-08-17T02:27:29.880Z,18.20
2022-08-17T02:29:57.527Z,18.20
2022-08-17T02:32:27.951Z,18.20
2022-08-17T02:34:59.240Z,18.30
2022-08-17T02:37:30.940Z,18.20
2022-08-17T02:39:59.412Z,18.20
2022-08-17T02:42:38.473Z,18.20
2022-08-17T02:45:13.566Z,18.10
2022-08-17T02:47:41.898Z,18.10
2022-08-17T02:50:14.559Z,18.10
2022-08-17T02:52:44.732Z,18.10
2022-08-17T02:55:32.933Z,18.10
2022-08-17T02:58:01.591Z,18.10
2022-08-17T03:00:36.436Z,18.10
2022-08-17T03:03:06.026Z,18.10
2022-08-17T03:05:35.977Z,18.00
2022-08-17T03:08:05.545Z,18.00
2022-08-17T03:10:33.331Z,18.00
2022-08-17T03:13:00.489Z,18.00
2022-08-17T03:15:32.190Z,18.00
2022-08-17T03:18:01.198Z,17.90
2022-08-17T03:20:31.491Z,18.00
2022-08-17T03:23:01.901Z,17.90
2022-08-17T03:25:34.623Z,17.90
2022-08-17T03:28:02.508Z,17.90
2022-08-17T03:30:29.682Z,18.00
2022-08-17T03:33:00.587Z,17.90
2022-08-17T03:35:32.847Z,17.90
2022-08-17T03:38:01.287Z,17.80
2022-08-17T03:40:34.519Z,17.80
2022-08-17T03:43:18.072Z,17.80
2022-08-17T03:46:03.736Z,17.80
2022-08-17T03:48:51.199Z,17.80
2022-08-17T03:51:41.473Z,17.80
2022-08-17T03:54:29.100Z,17.80
2022-08-17T03:57:07.742Z,17.70
2022-08-17T03:59:36.423Z,17.80
2022-08-17T04:02:13.023Z,17.80
2022-08-17T04:04:40.816Z,17.80
2022-08-17T04:07:08.431Z,17.80
2022-08-17T04:09:36.528Z,17.80
2022-08-17T04:12:05.285Z,17.80
2022-08-17T04:14:52.269Z,17.80
2022-08-17T04:17:27.606Z,17.80
2022-08-17T04:19:55.848Z,17.80
2022-08-17T04:22:30.753Z,17.90
2022-08-17T04:25:19.739Z,17.90
2022-08-17T04:27:48.259Z,17.90
2022-08-17T04:30:15.774Z,17.90
2022-08-17T04:33:08.721Z,17.90
2022-08-17T04:35:53.956Z,17.90
2022-08-17T04:38:30.704Z,18.00
2022-08-17T04:41:18.999Z,18.10
2022-08-17T04:43:48.797Z,18.10
2022-08-17T04:46:19.489Z,18.20
2022-08-17T04:48:51.425Z,18.20
2022-08-17T04:51:47.886Z,18.20
2022-08-17T04:54:23.990Z,18.20
2022-08-17T04:56:51.203Z,18.20
2022-08-17T04:59:21.727Z,18.20
2022-08-17T05:01:51.255Z,18.20
2022-08-17T05:04:34.604Z,18.20
2022-08-17T05:07:04.184Z,18.20
2022-08-17T05:09:31.569Z,18.20
2022-08-17T05:12:02.397Z,18.20
2022-08-17T05:14:33.491Z,18.20
2022-08-17T05:17:07.348Z,18.20
2022-08-17T05:19:37.665Z,18.20
2022-08-17T05:22:05.934Z,18.30
2022-08-17T05:24:42.911Z,18.30
2022-08-17T05:27:19.739Z,18.30
2022-08-17T05:29:46.758Z,18.40
2022-08-17T05:32:38.034Z,18.40
2022-08-17T05:35:02.122Z,18.40
2022-08-17T05:37:29.219Z,18.40
2022-08-17T05:39:56.414Z,18.50
2022-08-17T05:42:24.124Z,18.60
2022-08-17T05:44:51.301Z,18.60
2022-08-17T05:47:18.524Z,18.60
2022-08-17T05:49:48.908Z,18.60
2022-08-17T05:53:01.276Z,18.60
2022-08-17T05:56:27.947Z,18.70
2022-08-17T05:59:13.911Z,18.80
2022-08-17T06:02:02.865Z,18.80
2022-08-17T06:04:35.818Z,18.80
2022-08-17T06:07:47.878Z,18.90
2022-08-17T06:10:41.111Z,18.90
2022-08-17T06:13:28.743Z,18.90
2022-08-17T06:16:26.180Z,18.90
2022-08-17T06:19:13.484Z,19.00
2022-08-17T06:21:47.389Z,19.10
2022-08-17T06:24:33.785Z,19.20
2022-08-17T06:27:53.688Z,19.20
2022-08-17T06:30:28.608Z,19.20
2022-08-17T06:33:32.209Z,19.30
2022-08-17T06:36:15.789Z,19.40
2022-08-17T06:39:07.887Z,19.40
2022-08-17T06:42:03.260Z,19.50
2022-08-17T06:45:11.309Z,19.60
2022-08-17T06:47:49.474Z,19.60
2022-08-17T06:50:49.361Z,19.60
2022-08-17T06:53:53.399Z,19.60
2022-08-17T06:56:53.495Z,19.60
2022-08-17T06:59:54.529Z,19.70
2022-08-17T07:03:02.432Z,19.70
2022-08-17T07:05:58.406Z,19.90
2022-08-17T07:08:44.233Z,20.00
2022-08-17T07:11:19.416Z,20.00
2022-08-17T07:14:36.445Z,20.10
2022-08-17T07:17:20.645Z,20.10
2022-08-17T07:20:02.211Z,20.20
2022-08-17T07:23:10.554Z,20.20
2022-08-17T07:25:37.643Z,20.20
2022-08-17T07:28:07.758Z,20.30
2022-08-17T07:30:46.954Z,20.20
2022-08-17T07:33:29.284Z,20.20
2022-08-17T07:35:58.147Z,20.30
2022-08-17T07:38:30.146Z,20.50
2022-08-17T07:41:02.655Z,20.60
2022-08-17T07:43:41.991Z,20.70
2022-08-17T07:46:30.307Z,20.80
2022-08-17T07:49:07.494Z,20.90
2022-08-17T07:51:45.731Z,20.90
2022-08-17T07:54:15.573Z,20.90
2022-08-17T07:57:30.004Z,21.00
2022-08-17T08:00:01.497Z,21.10
2022-08-17T08:02:34.330Z,21.20
2022-08-17T08:05:30.682Z,21.40
2022-08-17T08:08:26.710Z,21.50
2022-08-17T08:11:11.713Z,21.70
2022-08-17T08:13:43.803Z,21.90
2022-08-17T08:16:26.354Z,22.10
2022-08-17T08:18:58.670Z,22.40
2022-08-17T08:21:29.119Z,22.50
2022-08-17T08:24:33.364Z,22.70
2022-08-17T08:27:44.461Z,22.70
2022-08-17T08:30:21.460Z,22.60
2022-08-17T08:32:57.671Z,22.80
2022-08-17T08:35:59.028Z,23.00
2022-08-17T08:38:42.569Z,23.10
2022-08-17T08:41:34.124Z,23.20
2022-08-17T08:45:00.615Z,23.20
2022-08-17T08:47:48.440Z,23.20
2022-08-17T08:50:43.325Z,23.00
2022-08-17T08:53:55.483Z,23.20
2022-08-17T08:57:11.567Z,23.00
2022-08-17T08:59:57.896Z,22.90
2022-08-17T09:02:59.577Z,22.70
2022-08-17T09:06:32.228Z,22.60
2022-08-17T09:09:58.981Z,22.60
2022-08-17T09:12:47.635Z,22.60
2022-08-17T09:15:27.609Z,22.70
2022-08-17T09:19:01.231Z,22.70
2022-08-17T09:21:29.032Z,22.70
2022-08-17T09:24:16.280Z,22.80
2022-08-17T09:26:58.943Z,23.00
2022-08-17T09:29:34.339Z,23.00
2022-08-17T09:32:17.661Z,22.90
2022-08-17T09:35:12.354Z,22.90
2022-08-17T09:38:04.050Z,22.80
2022-08-17T09:40:43.308Z,22.70
2022-08-17T09:43:20.234Z,22.70
2022-08-17T09:46:01.745Z,22.70
2022-08-17T09:48:43.600Z,22.60
2022-08-17T09:51:34.910Z,22.60
2022-08-17T09:54:34.843Z,22.60
2022-08-17T09:57:29.046Z,22.60
2022-08-17T10:00:25.143Z,22.60
2022-08-17T10:03:28.250Z,22.80
2022-08-17T10:06:13.208Z,23.00
2022-08-17T10:09:07.307Z,23.00
2022-08-17T10:12:17.333Z,23.20
2022-08-17T10:15:08.077Z,23.20
2022-08-17T10:17:55.546Z,23.30
2022-08-17T10:20:30.137Z,23.40
2022-08-17T10:23:26.744Z,23.50
2022-08-17T10:26:04.016Z,23.60
2022-08-17T10:28:56.209Z,24.00
2022-08-17T10:31:47.657Z,24.20
2022-08-17T10:34:41.099Z,24.30
2022-08-17T10:37:20.096Z,24.20
2022-08-17T10:40:22.199Z,24.30
2022-08-17T10:42:52.238Z,24.30
2022-08-17T10:45:28.107Z,24.60
2022-08-17T10:48:24.862Z,24.90
2022-08-17T10:51:38.031Z,25.20
2022-08-17T10:54:50.480Z,25.30
2022-08-17T10:57:31.654Z,25.00
2022-08-17T11:00:08.236Z,25.00
2022-08-17T11:02:54.020Z,25.00
2022-08-17T11:06:05.865Z,25.10
2022-08-17T11:08:57.525Z,25.00
2022-08-17T11:11:57.776Z,24.80
2022-08-17T11:14:50.585Z,25.00
2022-08-17T11:18:15.301Z,24.80
2022-08-17T11:21:16.579Z,24.80
2022-08-17T11:24:03.953Z,24.70
2022-08-17T11:26:36.757Z,24.80
2022-08-17T11:29:19.832Z,24.50
2022-08-17T11:32:13.481Z,24.40
2022-08-17T11:34:44.533Z,24.50
2022-08-17T11:37:44.746Z,24.50
2022-08-17T11:40:53.449Z,24.60
2022-08-17T11:44:19.434Z,24.70
2022-08-17T11:47:30.303Z,24.80
2022-08-17T11:50:50.906Z,25.00
2022-08-17T11:53:37.211Z,25.10
2022-08-17T11:56:31.717Z,25.20
2022-08-17T11:59:00.806Z,24.90
2022-08-17T12:01:28.938Z,24.90
2022-08-17T12:04:22.678Z,24.80
2022-08-17T12:06:56.890Z,24.60
2022-08-17T12:09:39.416Z,24.50
2022-08-17T12:12:20.136Z,24.50
2022-08-17T12:15:09.713Z,24.50
2022-08-17T12:17:41.498Z,24.50
2022-08-17T12:20:27.778Z,24.60
2022-08-17T12:23:07.137Z,24.60
2022-08-17T12:25:40.885Z,24.70
2022-08-17T12:28:31.818Z,24.70
2022-08-17T12:31:14.022Z,24.60
2022-08-17T12:33:46.789Z,24.50
2022-08-17T12:36:19.139Z,24.20
2022-08-17T12:39:14.155Z,24.30
2022-08-17T12:41:46.966Z,24.30
2022-08-17T12:44:25.919Z,24.20
2022-08-17T12:47:10.702Z,24.10
2022-08-17T12:49:43.901Z,24.20
2022-08-17T12:52:30.676Z,24.40
2022-08-17T12:55:01.821Z,24.50
2022-08-17T12:57:40.269Z,24.50
2022-08-17T13:00:24.785Z,24.50
2022-08-17T13:03:07.664Z,24.60
2022-08-17T13:05:43.527Z,24.60
2022-08-17T13:08:20.775Z,24.50
2022-08-17T13:11:01.623Z,24.50
2022-08-17T13:13:38.975Z,24.80
2022-08-17T13:16:11.585Z,24.80
2022-08-17T13:18:49.067Z,24.90
2022-08-17T13:21:19.201Z,25.00
2022-08-17T13:24:08.068Z,25.10
2022-08-17T13:26:45.598Z,25.10
2022-08-17T13:29:32.291Z,25.10
2022-08-17T13:32:13.462Z,25.00
2022-08-17T13:34:56.163Z,24.80
2022-08-17T13:37:36.681Z,24.90
2022-08-17T13:40:09.630Z,24.70
2022-08-17T13:42:52.655Z,24.70
2022-08-17T13:45:35.268Z,24.70
2022-08-17T13:48:16.550Z,24.60
2022-08-17T13:51:12.616Z,24.50
2022-08-17T13:53:40.440Z,24.40
2022-08-17T13:56:34.962Z,24.30
2022-08-17T13:59:38.246Z,24.10
2022-08-17T14:02:20.649Z,23.90
2022-08-17T14:04:48.652Z,23.80
2022-08-17T14:07:16.090Z,23.70
2022-08-17T14:10:10.063Z,23.60
2022-08-17T14:12:40.942Z,23.60
2022-08-17T14:15:11.417Z,23.60
2022-08-17T14:17:39.346Z,23.40
2022-08-17T14:20:10.579Z,23.40
2022-08-17T14:22:42.646Z,23.30
2022-08-17T14:25:14.649Z,23.30
2022-08-17T14:27:53.635Z,23.20
2022-08-17T14:30:24.896Z,23.20
2022-08-17T14:32:53.083Z,23.30
2022-08-17T14:35:23.031Z,23.30
2022-08-17T14:37:51.901Z,23.40
2022-08-17T14:40:24.280Z,23.30
2022-08-17T14:42:53.400Z,23.20
2022-08-17T14:45:31.650Z,23.00
2022-08-17T14:48:04.407Z,23.00
2022-08-17T14:50:32.150Z,22.90
2022-08-17T14:53:05.404Z,22.90
2022-08-17T14:55:33.444Z,22.80
2022-08-17T14:58:00.643Z,22.60
2022-08-17T15:00:28.490Z,22.50
2022-08-17T15:02:59.997Z,22.40
2022-08-17T15:05:34.464Z,22.30
2022-08-17T15:08:03.487Z,22.30
2022-08-17T15:10:31.985Z,22.20
2022-08-17T15:13:00.502Z,22.10
2022-08-17T15:15:29.136Z,22.00
2022-08-17T15:17:56.786Z,22.00
2022-08-17T15:20:28.662Z,21.90
2022-08-17T15:22:58.679Z,21.90
2022-08-17T15:25:29.446Z,21.70
2022-08-17T15:27:56.524Z,21.60
2022-08-17T15:30:25.912Z,21.50
2022-08-17T15:32:55.132Z,21.40
2022-08-17T15:35:27.199Z,21.40
2022-08-17T15:37:58.377Z,21.30
2022-08-17T15:40:25.457Z,21.20
2022-08-17T15:42:52.874Z,21.20
2022-08-17T15:45:24.817Z,21.20
2022-08-17T15:47:53.225Z,21.00
2022-08-17T15:50:20.608Z,20.70
2022-08-17T15:52:54.690Z,20.40
2022-08-17T15:55:24.140Z,20.10
2022-08-17T15:57:52.146Z,20.00
2022-08-17T16:00:20.178Z,19.90
2022-08-17T16:03:44.914Z,19.80
2022-08-17T16:05:35.740Z,19.60
2022-08-17T16:08:03.022Z,19.40
2022-08-17T16:10:35.136Z,19.40
2022-08-17T16:13:04.442Z,19.50
2022-08-17T16:15:32.212Z,19.60
2022-08-17T16:17:59.791Z,19.50
2022-08-17T16:20:27.596Z,19.50
2022-08-17T16:22:55.258Z,19.50
2022-08-17T16:25:38.807Z,19.50
2022-08-17T16:28:17.089Z,19.40
2022-08-17T16:30:44.254Z,19.50
2022-08-17T16:33:11.708Z,19.50
2022-08-17T16:35:39.209Z,19.60
2022-08-17T16:38:07.276Z,19.70
2022-08-17T16:40:36.129Z,19.80
2022-08-17T16:43:10.272Z,19.80
2022-08-17T16:45:40.503Z,19.80
2022-08-17T16:48:09.445Z,19.80
2022-08-17T16:50:37.165Z,19.80
2022-08-17T16:53:11.559Z,19.90
2022-08-17T16:55:38.750Z,19.80
2022-08-17T16:58:08.695Z,19.80
2022-08-17T17:00:37.045Z,19.80
2022-08-17T17:03:19.982Z,19.80
2022-08-17T17:06:27.790Z,19.90
2022-08-17T17:09:00.918Z,19.90
2022-08-17T17:11:50.845Z,19.90
2022-08-17T17:14:28.247Z,19.90
2022-08-17T17:17:26.777Z,20.00
2022-08-17T17:20:09.419Z,20.00
2022-08-17T17:23:11.564Z,20.00
2022-08-17T17:25:57.953Z,20.00
2022-08-17T17:29:14.177Z,20.00
2022-08-17T17:32:13.933Z,20.00
2022-08-17T17:34:50.980Z,20.00
2022-08-17T17:37:27.794Z,19.90
2022-08-17T17:40:01.233Z,19.90
2022-08-17T17:42:31.803Z,19.90
2022-08-17T17:45:04.660Z,19.90
2022-08-17T17:47:32.797Z,19.90
2022-08-17T17:50:02.328Z,19.90
2022-08-17T17:52:47.503Z,19.90
2022-08-17T17:55:35.866Z,19.80
2022-08-17T17:58:06.999Z,19.80
2022-08-17T18:00:49.712Z,19.80
2022-08-17T18:03:26.047Z,19.80
2022-08-17T18:06:45.447Z,19.80
2022-08-17T18:09:37.995Z,19.80
2022-08-17T18:12:11.187Z,19.70
2022-08-17T18:14:58.550Z,19.70
2022-08-17T18:17:26.462Z,19.70
2022-08-17T18:19:55.895Z,19.70
2022-08-17T18:22:23.728Z,19.70
2022-08-17T18:24:55.939Z,19.60
2022-08-17T18:27:34.689Z,19.60
2022-08-17T18:30:27.388Z,19.60
2022-08-17T18:32:54.319Z,19.50
2022-08-17T18:35:29.120Z,19.50
2022-08-17T18:38:20.365Z,19.50
2022-08-17T18:41:01.209Z,19.50
2022-08-17T18:43:36.452Z,19.50
2022-08-17T18:46:28.600Z,19.50
2022-08-17T18:49:19.406Z,19.50
2022-08-17T18:51:46.727Z,19.40
2022-08-17T18:54:24.584Z,19.40
2022-08-17T18:56:56.964Z,19.40
2022-08-17T18:59:41.555Z,19.40
2022-08-17T19:05:31.247Z,19.30
2022-08-17T19:08:17.159Z,19.30
2022-08-17T19:10:47.465Z,19.30
2022-08-17T19:13:23.258Z,19.20
2022-08-17T19:16:12.190Z,19.20
2022-08-17T19:18:47.976Z,19.20
2022-08-17T19:21:40.527Z,19.20
2022-08-17T19:24:26.491Z,19.10
2022-08-17T19:27:11.416Z,19.10
2022-08-17T19:29:51.817Z,19.10
2022-08-17T19:32:25.874Z,19.00
2022-08-17T19:34:54.719Z,19.00
2022-08-17T19:37:59.502Z,18.90
2022-08-17T19:40:52.774Z,18.90
2022-08-17T19:43:48.074Z,18.90
2022-08-17T19:46:37.683Z,18.90
2022-08-17T19:49:41.762Z,18.80
2022-08-17T19:52:39.835Z,18.80
2022-08-17T19:55:20.957Z,18.80
2022-08-17T19:58:39.287Z,18.90
2022-08-17T20:01:13.006Z,18.80
2022-08-17T20:03:58.135Z,18.90
2022-08-17T20:06:29.203Z,18.90
2022-08-17T20:09:36.801Z,18.80
2022-08-17T20:12:14.418Z,18.80
2022-08-17T20:14:53.711Z,18.80
2022-08-17T20:17:39.595Z,18.80
2022-08-17T20:21:20.817Z,18.80
2022-08-17T20:24:13.029Z,18.80
2022-08-17T20:26:58.875Z,18.80
2022-08-17T20:29:55.070Z,18.70
2022-08-17T20:32:28.046Z,18.70
2022-08-17T20:35:27.449Z,18.70
2022-08-17T20:38:04.653Z,18.70
2022-08-17T20:40:54.449Z,18.70
2022-08-17T20:43:34.035Z,18.70
2022-08-17T20:46:21.181Z,18.80
2022-08-17T20:48:53.169Z,18.70
2022-08-17T20:51:31.817Z,18.70
2022-08-17T20:54:17.252Z,18.70
2022-08-17T20:56:44.448Z,18.70
2022-08-17T20:59:25.655Z,18.70
2022-08-17T21:02:17.600Z,18.70
2022-08-17T21:04:55.133Z,18.70
2022-08-17T21:07:53.475Z,18.70
2022-08-17T21:10:26.600Z,18.70
2022-08-17T21:13:21.816Z,18.70
2022-08-17T21:16:41.236Z,18.70
2022-08-17T21:20:08.086Z,18.60
2022-08-17T21:23:10.161Z,18.60
2022-08-17T21:26:08.819Z,18.60
2022-08-17T21:29:31.338Z,18.60
2022-08-17T21:32:03.031Z,18.60
2022-08-17T21:34:34.648Z,18.60
2022-08-17T21:37:20.424Z,18.60
2022-08-17T21:40:01.167Z,18.60
2022-08-17T21:42:34.460Z,18.60
2022-08-17T21:45:37.772Z,18.60
2022-08-17T21:48:20.275Z,18.60
2022-08-17T21:51:19.429Z,18.60
2022-08-17T21:53:52.339Z,18.60
2022-08-17T21:56:35.409Z,18.60
2022-08-17T21:59:32.917Z,18.60
2022-08-17T22:02:06.029Z,18.60
2022-08-17T22:04:38.877Z,18.60
2022-08-17T22:07:11.885Z,18.60
2022-08-17T22:09:50.074Z,18.60
2022-08-17T22:12:24.151Z,18.60
2022-08-17T22:15:01.910Z,18.70
2022-08-17T22:17:41.135Z,18.70
2022-08-17T22:20:20.286Z,18.60
2022-08-17T22:23:09.244Z,18.70
2022-08-17T22:25:40.970Z,18.70
2022-08-17T22:28:12.565Z,18.70
2022-08-17T22:30:43.321Z,18.60
2022-08-17T22:33:44.013Z,18.60
2022-08-17T22:36:41.713Z,18.60
2022-08-17T22:39:08.683Z,18.60
2022-08-17T22:41:50.936Z,18.60
2022-08-17T22:44:46.860Z,18.60
2022-08-17T22:47:17.135Z,18.60
2022-08-17T22:49:57.802Z,18.60
2022-08-17T22:53:01.613Z,18.60
2022-08-17T22:55:50.723Z,18.70
2022-08-17T22:58:43.212Z,18.70
2022-08-17T23:01:34.812Z,18.70
2022-08-17T23:04:29.222Z,18.70
2022-08-17T23:06:56.569Z,18.70
2022-08-17T23:09:23.655Z,18.70
2022-08-17T23:11:58.710Z,18.70
2022-08-17T23:14:31.566Z,18.70
2022-08-17T23:16:59.704Z,18.70
2022-08-17T23:19:31.604Z,18.70
2022-08-17T23:22:02.197Z,18.70
2022-08-17T23:24:35.579Z,18.70
2022-08-17T23:27:07.299Z,18.70
2022-08-17T23:29:39.213Z,18.70
2022-08-17T23:32:07.015Z,18.70
2022-08-17T23:34:33.981Z,18.60
2022-08-17T23:37:02.138Z,18.60
2022-08-17T23:39:29.310Z,18.60
2022-08-17T23:42:05.141Z,18.70
2022-08-17T23:44:32.958Z,18.60
2022-08-17T23:47:00.225Z,18.70
2022-08-17T23:49:27.226Z,18.70
2022-08-17T23:51:55.149Z,18.70
2022-08-17T23:54:44.669Z,18.60
2022-08-17T23:57:16.087Z,18.70
2022-08-17T23:59:46.542Z,18.60
